PWSweather.com
Personal Weather Stations
Station Observations
KNVELKO7
Elko, NV 89801

Elko, NV 89801

Lat: 40.963233, Lon: -115.592836

Elevation: 5230

Station Type: WS-2812

High Low Average
Temperature 91.8°F33.2°C 40.7°F4.8°C 68.2°F20.1°C
Dew Point 43.9°F6.6°C 18.4°F-7.6°C 28.2°F-2.1°C
Winds 18.7 mph 30.1 kmh Calm Calm 4.0 mph SE6.4 kmh SE
Wind Gusts 23.0 mph37.0 kmh -- 6.0 mph9.7 kmh
Humidity 45% 12% 25%
Pressure 30.08 in1018.6 mb 29.94 in1013.9 mb -
Precipitation 0.00 in0.0 mm - -
Hour Temp Dew Point Humidity Winds Wind Gusts Pressure Precip Precip Rate Daily Precip Total
12:04 AM 54.9°F12.7°C 21.3°F-5.9°C 27% Calm Calm 1.8 mph2.9 kmh 30.04 in1017.3 mb 0.00 in0.0 mm 0.00 in0.0 mm 0.00 in0.0 mm
12:09 AM 54.4°F12.4°C 20.8°F-6.2°C 27% Calm Calm 1.1 mph1.8 kmh 30.05 in1017.6 mb 0.00 in0.0 mm 0.00 in0.0 mm 0.00 in0.0 mm
12:14 AM 54.0°F12.2°C 20.5°F-6.4°C 27% Calm Calm -- 30.05 in1017.6 mb 0.00 in0.0 mm 0.00 in0.0 mm 0.00 in0.0 mm
12:19 AM 53.6°F12.0°C 20.2°F-6.6°C 27% Calm Calm -- 30.04 in1017.3 mb 0.00 in0.0 mm 0.00 in0.0 mm 0.00 in0.0 mm
12:24 AM 53.5°F11.9°C 20.0°F-6.7°C 27% Calm Calm -- 30.05 in1017.6 mb 0.00 in0.0 mm 0.00 in0.0 mm 0.00 in0.0 mm
12:29 AM 53.3°F11.8°C 19.9°F-6.7°C 27% Calm Calm -- 30.04 in1017.3 mb 0.00 in0.0 mm 0.00 in0.0 mm 0.00 in0.0 mm
12:34 AM 53.5°F11.9°C 20.0°F-6.7°C 27% Calm Calm -- 30.04 in1017.3 mb 0.00 in0.0 mm 0.00 in0.0 mm 0.00 in0.0 mm
12:38 AM 53.3°F11.8°C 19.9°F-6.7°C 27% Calm Calm -- 30.04 in1017.3 mb 0.00 in0.0 mm 0.00 in0.0 mm 0.00 in0.0 mm
12:43 AM 53.1°F11.7°C 19.7°F-6.8°C 27% 0.9 mph NNW1.4 kmh NNW 1.6 mph2.6 kmh 30.04 in1017.3 mb 0.00 in0.0 mm 0.00 in0.0 mm 0.00 in0.0 mm
12:48 AM 52.6°F11.4°C 19.3°F-7.1°C 27% Calm Calm 1.8 mph2.9 kmh 30.04 in1017.3 mb 0.00 in0.0 mm 0.00 in0.0 mm 0.00 in0.0 mm
12:53 AM 52.0°F11.1°C 18.8°F-7.3°C 27% Calm Calm 1.8 mph2.9 kmh 30.04 in1017.3 mb 0.00 in0.0 mm 0.00 in0.0 mm 0.00 in0.0 mm
12:58 AM 52.0°F11.1°C 18.8°F-7.3°C 27% Calm Calm 0.7 mph1.1 kmh 30.04 in1017.3 mb 0.00 in0.0 mm 0.00 in0.0 mm 0.00 in0.0 mm
01:04 AM 51.8°F11.0°C 19.5°F-6.9°C 28% 0.7 mph E1.1 kmh E 0.7 mph1.1 kmh 30.04 in1017.3 mb 0.00 in0.0 mm 0.00 in0.0 mm 0.00 in0.0 mm
01:09 AM 51.7°F10.9°C 19.4°F-7.0°C 28% Calm Calm 0.7 mph1.1 kmh 30.04 in1017.3 mb 0.00 in0.0 mm 0.00 in0.0 mm 0.00 in0.0 mm
01:14 AM 51.5°F10.8°C 19.3°F-7.1°C 28% Calm Calm 0.2 mph0.3 kmh 30.04 in1017.3 mb 0.00 in0.0 mm 0.00 in0.0 mm 0.00 in0.0 mm
01:19 AM 51.5°F10.8°C 20.2°F-6.6°C 29% Calm Calm -- 30.04 in1017.3 mb 0.00 in0.0 mm 0.00 in0.0 mm 0.00 in0.0 mm
01:24 AM 51.5°F10.8°C 19.3°F-7.1°C 28% 2.8 mph 4.5 kmh 3.8 mph6.1 kmh 30.04 in1017.3 mb 0.00 in0.0 mm 0.00 in0.0 mm 0.00 in0.0 mm
01:29 AM 51.7°F10.9°C 19.4°F-7.0°C 28% 2.3 mph 3.7 kmh 3.8 mph6.1 kmh 30.04 in1017.3 mb 0.00 in0.0 mm 0.00 in0.0 mm 0.00 in0.0 mm
01:34 AM 51.1°F10.6°C 18.9°F-7.3°C 28% 2.8 mph NNE4.5 kmh NNE 2.9 mph4.7 kmh 30.04 in1017.3 mb 0.00 in0.0 mm 0.00 in0.0 mm 0.00 in0.0 mm
01:39 AM 51.1°F10.6°C 19.8°F-6.8°C 29% 3.2 mph NE5.1 kmh NE 3.4 mph5.5 kmh 30.04 in1017.3 mb 0.00 in0.0 mm 0.00 in0.0 mm 0.00 in0.0 mm
01:44 AM 51.1°F10.6°C 20.8°F-6.2°C 30% 3.9 mph ENE6.3 kmh ENE 4.3 mph6.9 kmh 30.04 in1017.3 mb 0.00 in0.0 mm 0.00 in0.0 mm 0.00 in0.0 mm
01:49 AM 51.5°F10.8°C 21.1°F-6.1°C 30% 3.9 mph 6.3 kmh 4.7 mph7.6 kmh 30.04 in1017.3 mb 0.00 in0.0 mm 0.00 in0.0 mm 0.00 in0.0 mm
01:54 AM 51.5°F10.8°C 21.1°F-6.1°C 30% 1.7 mph 2.7 kmh 4.7 mph7.6 kmh 30.04 in1017.3 mb 0.00 in0.0 mm 0.00 in0.0 mm 0.00 in0.0 mm
01:59 AM 51.1°F10.6°C 19.8°F-6.8°C 29% 0.4 mph 0.6 kmh 4.5 mph7.2 kmh 30.04 in1017.3 mb 0.00 in0.0 mm 0.00 in0.0 mm 0.00 in0.0 mm
02:04 AM 50.9°F10.5°C 20.6°F-6.3°C 30% 1.0 mph N1.6 kmh N 2.0 mph3.2 kmh 30.04 in1017.3 mb 0.00 in0.0 mm 0.00 in0.0 mm 0.00 in0.0 mm
02:09 AM 50.8°F10.4°C 20.4°F-6.4°C 30% 0.8 mph E1.3 kmh E 1.8 mph2.9 kmh 30.04 in1017.3 mb 0.00 in0.0 mm 0.00 in0.0 mm 0.00 in0.0 mm
02:14 AM 50.2°F10.1°C 20.6°F-6.3°C 31% 1.4 mph E2.3 kmh E 1.8 mph2.9 kmh 30.04 in1017.3 mb 0.00 in0.0 mm 0.00 in0.0 mm 0.00 in0.0 mm
02:19 AM 50.0°F10.0°C 20.5°F-6.4°C 31% Calm Calm 1.8 mph2.9 kmh 30.04 in1017.3 mb 0.00 in0.0 mm 0.00 in0.0 mm 0.00 in0.0 mm
02:24 AM 49.7°F9.8°C 20.9°F-6.2°C 32% Calm Calm 2.0 mph3.2 kmh 30.04 in1017.3 mb 0.00 in0.0 mm 0.00 in0.0 mm 0.00 in0.0 mm
02:29 AM 49.3°F9.6°C 19.9°F-6.7°C 31% 1.3 mph NNE2.1 kmh NNE 2.2 mph3.5 kmh 30.04 in1017.3 mb 0.00 in0.0 mm 0.00 in0.0 mm 0.00 in0.0 mm
02:34 AM 49.3°F9.6°C 21.2°F-6.0°C 33% Calm Calm 2.2 mph3.5 kmh 30.04 in1017.3 mb 0.00 in0.0 mm 0.00 in0.0 mm 0.00 in0.0 mm
02:39 AM 49.0°F9.4°C 21.0°F-6.1°C 33% 2.3 mph 3.7 kmh 2.5 mph4.0 kmh 30.05 in1017.6 mb 0.00 in0.0 mm 0.00 in0.0 mm 0.00 in0.0 mm
02:44 AM 48.6°F9.2°C 20.7°F-6.3°C 33% 1.5 mph 2.4 kmh 4.0 mph6.4 kmh 30.04 in1017.3 mb 0.00 in0.0 mm 0.00 in0.0 mm 0.00 in0.0 mm
02:49 AM 48.4°F9.1°C 21.2°F-6.0°C 34% 1.7 mph NNW2.7 kmh NNW 4.0 mph6.4 kmh 30.05 in1017.6 mb 0.00 in0.0 mm 0.00 in0.0 mm 0.00 in0.0 mm
02:54 AM 48.1°F8.9°C 20.9°F-6.2°C 34% 1.0 mph N1.6 kmh N 1.8 mph2.9 kmh 30.05 in1017.6 mb 0.00 in0.0 mm 0.00 in0.0 mm 0.00 in0.0 mm
02:59 AM 47.7°F8.7°C 19.9°F-6.7°C 33% Calm Calm 1.8 mph2.9 kmh 30.05 in1017.6 mb 0.00 in0.0 mm 0.00 in0.0 mm 0.00 in0.0 mm
03:04 AM 47.3°F8.5°C 19.5°F-6.9°C 33% 0.6 mph 1.0 kmh 0.9 mph1.4 kmh 30.05 in1017.6 mb 0.00 in0.0 mm 0.00 in0.0 mm 0.00 in0.0 mm
03:09 AM 47.3°F8.5°C 20.3°F-6.5°C 34% 2.2 mph 3.5 kmh 2.5 mph4.0 kmh 30.05 in1017.6 mb 0.00 in0.0 mm 0.00 in0.0 mm 0.00 in0.0 mm
03:14 AM 47.9°F8.8°C 20.7°F-6.3°C 34% 0.7 mph 1.1 kmh 2.5 mph4.0 kmh 30.05 in1017.6 mb 0.00 in0.0 mm 0.00 in0.0 mm 0.00 in0.0 mm
03:19 AM 47.9°F8.8°C 20.7°F-6.3°C 34% Calm Calm 2.2 mph3.5 kmh 30.05 in1017.6 mb 0.00 in0.0 mm 0.00 in0.0 mm 0.00 in0.0 mm
03:24 AM 47.3°F8.5°C 20.3°F-6.5°C 34% Calm Calm 1.1 mph1.8 kmh 30.05 in1017.6 mb 0.00 in0.0 mm 0.00 in0.0 mm 0.00 in0.0 mm
03:29 AM 47.0°F8.3°C 19.3°F-7.1°C 33% Calm Calm -- 30.05 in1017.6 mb 0.00 in0.0 mm 0.00 in0.0 mm 0.00 in0.0 mm
03:34 AM 46.4°F8.0°C 19.5°F-6.9°C 34% Calm Calm -- 30.05 in1017.6 mb 0.00 in0.0 mm 0.00 in0.0 mm 0.00 in0.0 mm
03:39 AM 45.7°F7.6°C 18.7°F-7.4°C 34% Calm Calm -- 30.05 in1017.6 mb 0.00 in0.0 mm 0.00 in0.0 mm 0.00 in0.0 mm
03:44 AM 45.5°F7.5°C 19.3°F-7.1°C 35% 1.3 mph NNE2.1 kmh NNE 1.3 mph2.1 kmh 30.06 in1017.9 mb 0.00 in0.0 mm 0.00 in0.0 mm 0.00 in0.0 mm
03:49 AM 46.1°F7.8°C 19.7°F-6.8°C 35% 1.8 mph NNE2.9 kmh NNE 1.8 mph2.9 kmh 30.06 in1017.9 mb 0.00 in0.0 mm 0.00 in0.0 mm 0.00 in0.0 mm
03:54 AM 46.4°F8.0°C 20.1°F-6.6°C 35% 2.6 mph NE4.2 kmh NE 2.7 mph4.3 kmh 30.05 in1017.6 mb 0.00 in0.0 mm 0.00 in0.0 mm 0.00 in0.0 mm
04:00 AM 46.4°F8.0°C 20.7°F-6.3°C 36% 3.1 mph ENE5.0 kmh ENE 3.4 mph5.5 kmh 30.05 in1017.6 mb 0.00 in0.0 mm 0.00 in0.0 mm 0.00 in0.0 mm
04:05 AM 46.1°F7.8°C 20.4°F-6.4°C 36% 0.4 mph NE0.6 kmh NE 3.4 mph5.5 kmh 30.05 in1017.6 mb 0.00 in0.0 mm 0.00 in0.0 mm 0.00 in0.0 mm
04:10 AM 45.4°F7.4°C 19.1°F-7.2°C 35% 0.7 mph NNE1.1 kmh NNE 2.2 mph3.5 kmh 30.05 in1017.6 mb 0.00 in0.0 mm 0.00 in0.0 mm 0.00 in0.0 mm
04:14 AM 45.0°F7.2°C 18.8°F-7.3°C 35% 1.8 mph NNE2.9 kmh NNE 1.8 mph2.9 kmh 30.06 in1017.9 mb 0.00 in0.0 mm 0.00 in0.0 mm 0.00 in0.0 mm
04:19 AM 44.6°F7.0°C 19.1°F-7.2°C 36% Calm Calm 1.8 mph2.9 kmh 30.06 in1017.9 mb 0.00 in0.0 mm 0.00 in0.0 mm 0.00 in0.0 mm
04:24 AM 44.5°F6.9°C 20.3°F-6.5°C 38% 0.2 mph E0.3 kmh E 1.3 mph2.1 kmh 30.06 in1017.9 mb 0.00 in0.0 mm 0.00 in0.0 mm 0.00 in0.0 mm
04:29 AM 44.3°F6.8°C 20.8°F-6.2°C 39% Calm Calm 0.7 mph1.1 kmh 30.06 in1017.9 mb 0.00 in0.0 mm 0.00 in0.0 mm 0.00 in0.0 mm
04:34 AM 43.9°F6.6°C 19.8°F-6.8°C 38% 1.1 mph 1.8 kmh 1.1 mph1.8 kmh 30.06 in1017.9 mb 0.00 in0.0 mm 0.00 in0.0 mm 0.00 in0.0 mm
04:39 AM 43.6°F6.4°C 18.8°F-7.3°C 37% 1.1 mph 1.8 kmh 1.1 mph1.8 kmh 30.06 in1017.9 mb 0.00 in0.0 mm 0.00 in0.0 mm 0.00 in0.0 mm
04:44 AM 43.4°F6.3°C 18.6°F-7.4°C 37% 0.6 mph 1.0 kmh 1.1 mph1.8 kmh 30.06 in1017.9 mb 0.00 in0.0 mm 0.00 in0.0 mm 0.00 in0.0 mm
04:49 AM 43.0°F6.1°C 18.4°F-7.6°C 37% 1.1 mph 1.8 kmh 1.8 mph2.9 kmh 30.06 in1017.9 mb 0.00 in0.0 mm 0.00 in0.0 mm 0.00 in0.0 mm
04:54 AM 43.0°F6.1°C 18.4°F-7.6°C 37% 2.1 mph 3.4 kmh 2.2 mph3.5 kmh 30.06 in1017.9 mb 0.00 in0.0 mm 0.00 in0.0 mm 0.00 in0.0 mm
05:00 AM 43.2°F6.2°C 19.2°F-7.1°C 38% 2.1 mph 3.4 kmh 3.1 mph5.0 kmh 30.06 in1017.9 mb 0.00 in0.0 mm 0.00 in0.0 mm 0.00 in0.0 mm
05:05 AM 42.8°F6.0°C 18.8°F-7.3°C 38% 3.8 mph 6.1 kmh 4.0 mph6.4 kmh 30.06 in1017.9 mb 0.00 in0.0 mm 0.00 in0.0 mm 0.00 in0.0 mm
05:10 AM 42.8°F6.0°C 19.5°F-6.9°C 39% 0.6 mph 1.0 kmh 4.0 mph6.4 kmh 30.06 in1017.9 mb 0.00 in0.0 mm 0.00 in0.0 mm 0.00 in0.0 mm
05:15 AM 42.8°F6.0°C 18.8°F-7.3°C 38% Calm Calm 3.4 mph5.5 kmh 30.06 in1017.9 mb 0.00 in0.0 mm 0.00 in0.0 mm 0.00 in0.0 mm
05:20 AM 42.7°F5.9°C 18.6°F-7.4°C 38% Calm Calm 0.9 mph1.4 kmh 30.06 in1017.9 mb 0.00 in0.0 mm 0.00 in0.0 mm 0.00 in0.0 mm
05:25 AM 42.8°F6.0°C 18.8°F-7.3°C 38% 0.4 mph 0.6 kmh 0.9 mph1.4 kmh 30.06 in1017.9 mb 0.00 in0.0 mm 0.00 in0.0 mm 0.00 in0.0 mm
05:30 AM 42.8°F6.0°C 18.8°F-7.3°C 38% Calm Calm 0.4 mph0.6 kmh 30.06 in1017.9 mb 0.00 in0.0 mm 0.00 in0.0 mm 0.00 in0.0 mm
05:35 AM 42.8°F6.0°C 19.5°F-6.9°C 39% Calm Calm 0.2 mph0.3 kmh 30.06 in1017.9 mb 0.00 in0.0 mm 0.00 in0.0 mm 0.00 in0.0 mm
05:39 AM 42.5°F5.8°C 19.2°F-7.1°C 39% 1.0 mph SE1.6 kmh SE 1.1 mph1.8 kmh 30.06 in1017.9 mb 0.00 in0.0 mm 0.00 in0.0 mm 0.00 in0.0 mm
05:44 AM 42.1°F5.6°C 18.8°F-7.3°C 39% Calm Calm 1.1 mph1.8 kmh 30.06 in1017.9 mb 0.00 in0.0 mm 0.00 in0.0 mm 0.00 in0.0 mm
05:49 AM 41.8°F5.4°C 18.6°F-7.4°C 39% Calm Calm 1.1 mph1.8 kmh 30.06 in1017.9 mb 0.00 in0.0 mm 0.00 in0.0 mm 0.00 in0.0 mm
05:54 AM 41.4°F5.2°C 18.9°F-7.3°C 40% Calm Calm 0.4 mph0.6 kmh 30.06 in1017.9 mb 0.00 in0.0 mm 0.00 in0.0 mm 0.00 in0.0 mm
06:00 AM 41.4°F5.2°C 18.9°F-7.3°C 40% Calm Calm -- 30.06 in1017.9 mb 0.00 in0.0 mm 0.00 in0.0 mm 0.00 in0.0 mm
06:05 AM 41.4°F5.2°C 19.4°F-7.0°C 41% 0.4 mph ESE0.6 kmh ESE 3.1 mph5.0 kmh 30.06 in1017.9 mb 0.00 in0.0 mm 0.00 in0.0 mm 0.00 in0.0 mm
06:10 AM 41.2°F5.1°C 18.7°F-7.4°C 40% 2.8 mph ESE4.5 kmh ESE 3.1 mph5.0 kmh 30.07 in1018.3 mb 0.00 in0.0 mm 0.00 in0.0 mm 0.00 in0.0 mm
06:15 AM 41.0°F5.0°C 19.6°F-6.9°C 42% 0.4 mph ESE0.6 kmh ESE 3.1 mph5.0 kmh 30.07 in1018.3 mb 0.00 in0.0 mm 0.00 in0.0 mm 0.00 in0.0 mm
06:20 AM 40.7°F4.8°C 19.8°F-6.8°C 43% Calm Calm 1.6 mph2.6 kmh 30.07 in1018.3 mb 0.00 in0.0 mm 0.00 in0.0 mm 0.00 in0.0 mm
06:25 AM 40.7°F4.8°C 19.8°F-6.8°C 43% Calm Calm 0.9 mph1.4 kmh 30.07 in1018.3 mb 0.00 in0.0 mm 0.00 in0.0 mm 0.00 in0.0 mm
06:30 AM 40.7°F4.8°C 19.8°F-6.8°C 43% Calm Calm 0.9 mph1.4 kmh 30.07 in1018.3 mb 0.00 in0.0 mm 0.00 in0.0 mm 0.00 in0.0 mm
06:35 AM 40.7°F4.8°C 19.8°F-6.8°C 43% Calm Calm -- 30.07 in1018.3 mb 0.00 in0.0 mm 0.00 in0.0 mm 0.00 in0.0 mm
06:40 AM 41.0°F5.0°C 20.1°F-6.6°C 43% Calm Calm -- 30.07 in1018.3 mb 0.00 in0.0 mm 0.00 in0.0 mm 0.00 in0.0 mm
06:45 AM 41.2°F5.1°C 20.8°F-6.2°C 44% Calm Calm -- 30.07 in1018.3 mb 0.00 in0.0 mm 0.00 in0.0 mm 0.00 in0.0 mm
06:50 AM 41.6°F5.3°C 21.2°F-6.0°C 44% Calm Calm -- 30.07 in1018.3 mb 0.00 in0.0 mm 0.00 in0.0 mm 0.00 in0.0 mm
06:55 AM 42.1°F5.6°C 21.6°F-5.8°C 44% Calm Calm -- 30.07 in1018.3 mb 0.00 in0.0 mm 0.00 in0.0 mm 0.00 in0.0 mm
07:00 AM 42.5°F5.8°C 22.0°F-5.6°C 44% Calm Calm -- 30.07 in1018.3 mb 0.00 in0.0 mm 0.00 in0.0 mm 0.00 in0.0 mm
07:05 AM 43.2°F6.2°C 22.7°F-5.2°C 44% 0.2 mph 0.3 kmh 0.2 mph0.3 kmh 30.07 in1018.3 mb 0.00 in0.0 mm 0.00 in0.0 mm 0.00 in0.0 mm
07:10 AM 43.9°F6.6°C 23.3°F-4.8°C 44% Calm Calm 0.2 mph0.3 kmh 30.07 in1018.3 mb 0.00 in0.0 mm 0.00 in0.0 mm 0.00 in0.0 mm
07:15 AM 44.8°F7.1°C 24.7°F-4.1°C 45% 3.5 mph ENE5.6 kmh ENE 4.0 mph6.4 kmh 30.08 in1018.6 mb 0.00 in0.0 mm 0.00 in0.0 mm 0.00 in0.0 mm
07:20 AM 45.9°F7.7°C 25.1°F-3.8°C 44% 2.9 mph NE4.7 kmh NE 4.5 mph7.2 kmh 30.08 in1018.6 mb 0.00 in0.0 mm 0.00 in0.0 mm 0.00 in0.0 mm
07:25 AM 47.3°F8.5°C 25.3°F-3.7°C 42% 5.1 mph NE8.2 kmh NE 5.6 mph9.0 kmh 30.07 in1018.3 mb 0.00 in0.0 mm 0.00 in0.0 mm 0.00 in0.0 mm
07:30 AM 48.6°F9.2°C 25.4°F-3.7°C 40% 3.4 mph NNE5.5 kmh NNE 5.6 mph9.0 kmh 30.07 in1018.3 mb 0.00 in0.0 mm 0.00 in0.0 mm 0.00 in0.0 mm
07:35 AM 49.7°F9.8°C 25.7°F-3.5°C 39% 2.3 mph 3.7 kmh 5.4 mph8.7 kmh 30.07 in1018.3 mb 0.00 in0.0 mm 0.00 in0.0 mm 0.00 in0.0 mm
07:40 AM 50.6°F10.3°C 26.5°F-3.1°C 39% 3.1 mph NNE5.0 kmh NNE 4.0 mph6.4 kmh 30.08 in1018.6 mb 0.00 in0.0 mm 0.00 in0.0 mm 0.00 in0.0 mm
07:45 AM 51.5°F10.8°C 27.3°F-2.6°C 39% 2.8 mph NNE4.5 kmh NNE 4.0 mph6.4 kmh 30.07 in1018.3 mb 0.00 in0.0 mm 0.00 in0.0 mm 0.00 in0.0 mm
07:50 AM 52.6°F11.4°C 27.5°F-2.5°C 38% 4.2 mph NE6.8 kmh NE 4.7 mph7.6 kmh 30.07 in1018.3 mb 0.00 in0.0 mm 0.00 in0.0 mm 0.00 in0.0 mm
07:55 AM 53.5°F11.9°C 28.4°F-2.0°C 38% 3.0 mph E4.8 kmh E 4.7 mph7.6 kmh 30.07 in1018.3 mb 0.00 in0.0 mm 0.00 in0.0 mm 0.00 in0.0 mm
08:00 AM 54.2°F12.3°C 29.0°F-1.7°C 38% 3.1 mph E5.0 kmh E 4.5 mph7.2 kmh 30.07 in1018.3 mb 0.00 in0.0 mm 0.00 in0.0 mm 0.00 in0.0 mm
08:05 AM 55.1°F12.8°C 29.8°F-1.2°C 38% 2.0 mph NE3.2 kmh NE 3.4 mph5.5 kmh 30.07 in1018.3 mb 0.00 in0.0 mm 0.00 in0.0 mm 0.00 in0.0 mm
08:10 AM 56.0°F13.3°C 29.9°F-1.2°C 37% 4.0 mph E6.4 kmh E 5.4 mph8.7 kmh 30.07 in1018.3 mb 0.00 in0.0 mm 0.00 in0.0 mm 0.00 in0.0 mm
08:15 AM 56.9°F13.8°C 30.7°F-0.7°C 37% 1.5 mph NE2.4 kmh NE 5.4 mph8.7 kmh 30.07 in1018.3 mb 0.00 in0.0 mm 0.00 in0.0 mm 0.00 in0.0 mm
08:20 AM 57.6°F14.2°C 31.3°F-0.4°C 37% 1.0 mph E1.6 kmh E 2.5 mph4.0 kmh 30.07 in1018.3 mb 0.00 in0.0 mm 0.00 in0.0 mm 0.00 in0.0 mm
08:25 AM 58.5°F14.7°C 31.4°F-0.3°C 36% 1.9 mph NE3.1 kmh NE 2.0 mph3.2 kmh 30.07 in1018.3 mb 0.00 in0.0 mm 0.00 in0.0 mm 0.00 in0.0 mm
08:30 AM 59.2°F15.1°C 31.4°F-0.3°C 35% 2.3 mph NE3.7 kmh NE 4.0 mph6.4 kmh 30.07 in1018.3 mb 0.00 in0.0 mm 0.00 in0.0 mm 0.00 in0.0 mm
08:35 AM 60.1°F15.6°C 31.4°F-0.3°C 34% 3.4 mph ENE5.5 kmh ENE 4.0 mph6.4 kmh 30.07 in1018.3 mb 0.00 in0.0 mm 0.00 in0.0 mm 0.00 in0.0 mm
08:40 AM 60.8°F16.0°C 32.0°F0.0°C 34% 0.9 mph E1.4 kmh E 4.3 mph6.9 kmh 30.07 in1018.3 mb 0.00 in0.0 mm 0.00 in0.0 mm 0.00 in0.0 mm
08:45 AM 61.7°F16.5°C 32.1°F0.1°C 33% 1.7 mph E2.7 kmh E 4.3 mph6.9 kmh 30.07 in1018.3 mb 0.00 in0.0 mm 0.00 in0.0 mm 0.00 in0.0 mm
08:50 AM 62.6°F17.0°C 32.9°F0.5°C 33% 1.1 mph E1.8 kmh E 3.4 mph5.5 kmh 30.07 in1018.3 mb 0.00 in0.0 mm 0.00 in0.0 mm 0.00 in0.0 mm
08:55 AM 63.7°F17.6°C 33.9°F1.1°C 33% 2.3 mph ENE3.7 kmh ENE 2.5 mph4.0 kmh 30.07 in1018.3 mb 0.00 in0.0 mm 0.00 in0.0 mm 0.00 in0.0 mm
09:01 AM 64.4°F18.0°C 33.8°F1.0°C 32% 2.1 mph ENE3.4 kmh ENE 2.7 mph4.3 kmh 30.07 in1018.3 mb 0.00 in0.0 mm 0.00 in0.0 mm 0.00 in0.0 mm
09:06 AM 65.5°F18.6°C 34.8°F1.6°C 32% 1.6 mph ENE2.6 kmh ENE 3.6 mph5.8 kmh 30.07 in1018.3 mb 0.00 in0.0 mm 0.00 in0.0 mm 0.00 in0.0 mm
09:11 AM 66.2°F19.0°C 35.5°F1.9°C 32% 2.3 mph ENE3.7 kmh ENE 4.0 mph6.4 kmh 30.07 in1018.3 mb 0.00 in0.0 mm 0.00 in0.0 mm 0.00 in0.0 mm
09:16 AM 67.0°F19.4°C 36.1°F2.3°C 32% 1.0 mph E1.6 kmh E 4.0 mph6.4 kmh 30.07 in1018.3 mb 0.00 in0.0 mm 0.00 in0.0 mm 0.00 in0.0 mm
09:21 AM 67.7°F19.8°C 35.9°F2.2°C 31% 3.4 mph E5.5 kmh E 4.3 mph6.9 kmh 30.07 in1018.3 mb 0.00 in0.0 mm 0.00 in0.0 mm 0.00 in0.0 mm
09:25 AM 68.4°F20.2°C 35.8°F2.1°C 30% 3.0 mph ENE4.8 kmh ENE 4.3 mph6.9 kmh 30.07 in1018.3 mb 0.00 in0.0 mm 0.00 in0.0 mm 0.00 in0.0 mm
09:30 AM 69.1°F20.6°C 36.5°F2.5°C 30% 3.5 mph NE5.6 kmh NE 4.0 mph6.4 kmh 30.07 in1018.3 mb 0.00 in0.0 mm 0.00 in0.0 mm 0.00 in0.0 mm
09:35 AM 69.7°F20.9°C 36.9°F2.7°C 30% 2.8 mph E4.5 kmh E 4.3 mph6.9 kmh 30.07 in1018.3 mb 0.00 in0.0 mm 0.00 in0.0 mm 0.00 in0.0 mm
09:40 AM 70.6°F21.4°C 36.7°F2.6°C 29% 3.2 mph E5.1 kmh E 4.3 mph6.9 kmh 30.07 in1018.3 mb 0.00 in0.0 mm 0.00 in0.0 mm 0.00 in0.0 mm
09:45 AM 71.6°F22.0°C 37.7°F3.2°C 29% Calm Calm 3.6 mph5.8 kmh 30.07 in1018.3 mb 0.00 in0.0 mm 0.00 in0.0 mm 0.00 in0.0 mm
09:50 AM 72.5°F22.5°C 38.4°F3.6°C 29% 0.2 mph ESE0.3 kmh ESE 3.8 mph6.1 kmh 30.07 in1018.3 mb 0.00 in0.0 mm 0.00 in0.0 mm 0.00 in0.0 mm
09:55 AM 73.4°F23.0°C 38.2°F3.4°C 28% 1.6 mph NNW2.6 kmh NNW 3.8 mph6.1 kmh 30.07 in1018.3 mb 0.00 in0.0 mm 0.00 in0.0 mm 0.00 in0.0 mm
10:01 AM 74.3°F23.5°C 36.9°F2.7°C 26% 2.0 mph 3.2 kmh 3.1 mph5.0 kmh 30.07 in1018.3 mb 0.00 in0.0 mm 0.00 in0.0 mm 0.00 in0.0 mm
10:06 AM 74.5°F23.6°C 36.0°F2.2°C 25% Calm Calm 3.4 mph5.5 kmh 30.07 in1018.3 mb 0.00 in0.0 mm 0.00 in0.0 mm 0.00 in0.0 mm
10:11 AM 75.2°F24.0°C 35.7°F2.1°C 24% 0.2 mph W0.3 kmh W 3.4 mph5.5 kmh 30.07 in1018.3 mb 0.00 in0.0 mm 0.00 in0.0 mm 0.00 in0.0 mm
10:16 AM 76.0°F24.4°C 35.2°F1.8°C 23% 1.6 mph NW2.6 kmh NW 3.6 mph5.8 kmh 30.06 in1017.9 mb 0.00 in0.0 mm 0.00 in0.0 mm 0.00 in0.0 mm
10:21 AM 76.7°F24.8°C 35.7°F2.1°C 23% 2.0 mph NNW3.2 kmh NNW 3.6 mph5.8 kmh 30.06 in1017.9 mb 0.00 in0.0 mm 0.00 in0.0 mm 0.00 in0.0 mm
10:26 AM 77.4°F25.2°C 36.4°F2.4°C 23% Calm Calm 3.4 mph5.5 kmh 30.06 in1017.9 mb 0.00 in0.0 mm 0.00 in0.0 mm 0.00 in0.0 mm
10:31 AM 78.5°F25.8°C 38.3°F3.5°C 24% 2.5 mph WSW4.0 kmh WSW 3.4 mph5.5 kmh 30.06 in1017.9 mb 0.00 in0.0 mm 0.00 in0.0 mm 0.00 in0.0 mm
10:36 AM 79.2°F26.2°C 37.8°F3.2°C 23% 3.4 mph WSW5.5 kmh WSW 3.4 mph5.5 kmh 30.06 in1017.9 mb 0.00 in0.0 mm 0.00 in0.0 mm 0.00 in0.0 mm
10:41 AM 79.6°F26.4°C 38.2°F3.4°C 23% 1.1 mph SW1.8 kmh SW 3.8 mph6.1 kmh 30.06 in1017.9 mb 0.00 in0.0 mm 0.00 in0.0 mm 0.00 in0.0 mm
10:45 AM 80.3°F26.8°C 39.9°F4.4°C 24% 0.9 mph SW1.4 kmh SW 3.8 mph6.1 kmh 30.05 in1017.6 mb 0.00 in0.0 mm 0.00 in0.0 mm 0.00 in0.0 mm
10:50 AM 81.7°F27.6°C 41.0°F5.0°C 24% 0.8 mph ESE1.3 kmh ESE 1.6 mph2.6 kmh 30.05 in1017.6 mb 0.00 in0.0 mm 0.00 in0.0 mm 0.00 in0.0 mm
10:55 AM 82.8°F28.2°C 42.0°F5.6°C 24% 1.5 mph SW2.4 kmh SW 2.0 mph3.2 kmh 30.05 in1017.6 mb 0.00 in0.0 mm 0.00 in0.0 mm 0.00 in0.0 mm
11:01 AM 83.9°F28.8°C 41.8°F5.4°C 23% 1.0 mph ESE1.6 kmh ESE 2.0 mph3.2 kmh 30.05 in1017.6 mb 0.00 in0.0 mm 0.00 in0.0 mm 0.00 in0.0 mm
11:06 AM 84.8°F29.3°C 42.5°F5.8°C 23% 1.7 mph SW2.7 kmh SW 2.5 mph4.0 kmh 30.04 in1017.3 mb 0.00 in0.0 mm 0.00 in0.0 mm 0.00 in0.0 mm
11:11 AM 84.8°F29.3°C 40.4°F4.7°C 21% 5.1 mph W8.2 kmh W 5.6 mph9.0 kmh 30.04 in1017.3 mb 0.00 in0.0 mm 0.00 in0.0 mm 0.00 in0.0 mm
11:16 AM 84.4°F29.1°C 41.1°F5.1°C 22% 3.7 mph SW6.0 kmh SW 5.6 mph9.0 kmh 30.04 in1017.3 mb 0.00 in0.0 mm 0.00 in0.0 mm 0.00 in0.0 mm
11:21 AM 84.8°F29.3°C 39.3°F4.1°C 20% 0.9 mph N1.4 kmh N 5.4 mph8.7 kmh 30.04 in1017.3 mb 0.00 in0.0 mm 0.00 in0.0 mm 0.00 in0.0 mm
11:26 AM 85.1°F29.5°C 40.7°F4.8°C 21% 4.9 mph SW7.9 kmh SW 6.5 mph10.5 kmh 30.03 in1016.9 mb 0.00 in0.0 mm 0.00 in0.0 mm 0.00 in0.0 mm
11:31 AM 85.5°F29.7°C 41.0°F5.0°C 21% 1.3 mph ESE2.1 kmh ESE 6.5 mph10.5 kmh 30.03 in1016.9 mb 0.00 in0.0 mm 0.00 in0.0 mm 0.00 in0.0 mm
11:36 AM 86.4°F30.2°C 40.7°F4.8°C 20% 0.7 mph WSW1.1 kmh WSW 3.6 mph5.8 kmh 30.03 in1016.9 mb 0.00 in0.0 mm 0.00 in0.0 mm 0.00 in0.0 mm
11:41 AM 87.3°F30.7°C 43.6°F6.4°C 22% 4.9 mph SW7.9 kmh SW 8.1 mph13.0 kmh 30.02 in1016.6 mb 0.00 in0.0 mm 0.00 in0.0 mm 0.00 in0.0 mm
11:46 AM 87.5°F30.8°C 43.7°F6.5°C 22% 8.7 mph S14.0 kmh S 10.7 mph17.2 kmh 30.02 in1016.6 mb 0.00 in0.0 mm 0.00 in0.0 mm 0.00 in0.0 mm
11:51 AM 87.5°F30.8°C 39.9°F4.4°C 19% 10.1 mph SW16.3 kmh SW 15.4 mph24.8 kmh 30.02 in1016.6 mb 0.00 in0.0 mm 0.00 in0.0 mm 0.00 in0.0 mm
11:56 AM 87.7°F30.9°C 42.8°F6.0°C 21% 4.3 mph SW6.9 kmh SW 15.4 mph24.8 kmh 30.02 in1016.6 mb 0.00 in0.0 mm 0.00 in0.0 mm 0.00 in0.0 mm
12:01 PM 87.8°F31.0°C 41.9°F5.5°C 20% 7.1 mph SW11.4 kmh SW 11.0 mph17.7 kmh 30.02 in1016.6 mb 0.00 in0.0 mm 0.00 in0.0 mm 0.00 in0.0 mm
12:06 PM 88.6°F31.4°C 43.6°F6.4°C 21% 10.4 mph S16.7 kmh S 11.6 mph18.7 kmh 30.02 in1016.6 mb 0.00 in0.0 mm 0.00 in0.0 mm 0.00 in0.0 mm
12:11 PM 88.9°F31.6°C 43.9°F6.6°C 21% 9.8 mph SSW15.8 kmh SSW 11.6 mph18.7 kmh 30.01 in1016.3 mb 0.00 in0.0 mm 0.00 in0.0 mm 0.00 in0.0 mm
12:16 PM 88.9°F31.6°C 42.9°F6.1°C 20% 10.2 mph S16.4 kmh S 14.3 mph23.0 kmh 30.01 in1016.3 mb 0.00 in0.0 mm 0.00 in0.0 mm 0.00 in0.0 mm
12:21 PM 89.3°F31.8°C 41.3°F5.2°C 19% 9.1 mph S14.6 kmh S 14.5 mph23.3 kmh 30.01 in1016.3 mb 0.00 in0.0 mm 0.00 in0.0 mm 0.00 in0.0 mm
12:26 PM 89.6°F32.0°C 41.7°F5.4°C 19% 8.9 mph SSE14.3 kmh SSE 14.5 mph23.3 kmh 30.00 in1015.9 mb 0.00 in0.0 mm 0.00 in0.0 mm 0.00 in0.0 mm
12:31 PM 90.2°F32.3°C 42.0°F5.6°C 19% 7.5 mph SW12.1 kmh SW 13.9 mph22.4 kmh 30.00 in1015.9 mb 0.00 in0.0 mm 0.00 in0.0 mm 0.00 in0.0 mm
12:36 PM 90.0°F32.2°C 40.1°F4.5°C 18% 11.8 mph WSW19.0 kmh WSW 13.9 mph22.4 kmh 30.00 in1015.9 mb 0.00 in0.0 mm 0.00 in0.0 mm 0.00 in0.0 mm
12:41 PM 89.6°F32.0°C 38.2°F3.4°C 17% 6.5 mph WSW10.5 kmh WSW 12.3 mph19.8 kmh 30.00 in1015.9 mb 0.00 in0.0 mm 0.00 in0.0 mm 0.00 in0.0 mm
12:46 PM 90.0°F32.2°C 40.1°F4.5°C 18% 12.1 mph SW19.5 kmh SW 13.6 mph21.9 kmh 30.00 in1015.9 mb 0.00 in0.0 mm 0.00 in0.0 mm 0.00 in0.0 mm
12:51 PM 90.0°F32.2°C 40.1°F4.5°C 18% 10.9 mph WSW17.5 kmh WSW 13.6 mph21.9 kmh 30.00 in1015.9 mb 0.00 in0.0 mm 0.00 in0.0 mm 0.00 in0.0 mm
12:56 PM 89.5°F31.9°C 38.0°F3.3°C 17% 12.1 mph SW19.5 kmh SW 12.5 mph20.1 kmh 30.00 in1015.9 mb 0.00 in0.0 mm 0.00 in0.0 mm 0.00 in0.0 mm
01:02 PM 89.6°F32.0°C 39.9°F4.4°C 18% 8.2 mph SW13.2 kmh SW 15.0 mph24.1 kmh 30.00 in1015.9 mb 0.00 in0.0 mm 0.00 in0.0 mm 0.00 in0.0 mm
01:07 PM 90.2°F32.3°C 38.6°F3.7°C 17% 13.1 mph WSW21.1 kmh WSW 15.0 mph24.1 kmh 29.99 in1015.6 mb 0.00 in0.0 mm 0.00 in0.0 mm 0.00 in0.0 mm
01:12 PM 89.8°F32.1°C 38.3°F3.5°C 17% 8.6 mph SW13.8 kmh SW 15.7 mph25.3 kmh 30.00 in1015.9 mb 0.00 in0.0 mm 0.00 in0.0 mm 0.00 in0.0 mm
01:17 PM 89.8°F32.1°C 40.1°F4.5°C 18% 10.1 mph SSW16.3 kmh SSW 15.7 mph25.3 kmh 29.99 in1015.6 mb 0.00 in0.0 mm 0.00 in0.0 mm 0.00 in0.0 mm
01:21 PM 89.8°F32.1°C 36.5°F2.5°C 16% 17.0 mph SW27.4 kmh SW 17.2 mph27.7 kmh 29.99 in1015.6 mb 0.00 in0.0 mm 0.00 in0.0 mm 0.00 in0.0 mm
01:26 PM 89.5°F31.9°C 36.3°F2.4°C 16% 9.3 mph WSW15.0 kmh WSW 19.2 mph30.9 kmh 29.99 in1015.6 mb 0.00 in0.0 mm 0.00 in0.0 mm 0.00 in0.0 mm
01:31 PM 89.6°F32.0°C 36.4°F2.4°C 16% 10.7 mph WSW17.2 kmh WSW 19.2 mph30.9 kmh 29.99 in1015.6 mb 0.00 in0.0 mm 0.00 in0.0 mm 0.00 in0.0 mm
01:36 PM 89.6°F32.0°C 36.4°F2.4°C 16% 11.1 mph SW17.9 kmh SW 16.3 mph26.2 kmh 29.99 in1015.6 mb 0.00 in0.0 mm 0.00 in0.0 mm 0.00 in0.0 mm
01:41 PM 89.6°F32.0°C 36.4°F2.4°C 16% 12.8 mph SSW20.6 kmh SSW 19.2 mph30.9 kmh 29.99 in1015.6 mb 0.00 in0.0 mm 0.00 in0.0 mm 0.00 in0.0 mm
01:46 PM 89.8°F32.1°C 36.5°F2.5°C 16% 8.5 mph SW13.7 kmh SW 19.2 mph30.9 kmh 29.99 in1015.6 mb 0.00 in0.0 mm 0.00 in0.0 mm 0.00 in0.0 mm
01:51 PM 90.2°F32.3°C 36.8°F2.7°C 16% 15.0 mph SW24.1 kmh SW 15.7 mph25.3 kmh 29.99 in1015.6 mb 0.00 in0.0 mm 0.00 in0.0 mm 0.00 in0.0 mm
01:56 PM 90.2°F32.3°C 31.6°F-0.2°C 13% 15.8 mph SW25.4 kmh SW 18.1 mph29.1 kmh 29.99 in1015.6 mb 0.00 in0.0 mm 0.00 in0.0 mm 0.00 in0.0 mm
02:02 PM 89.8°F32.1°C 31.3°F-0.4°C 13% 8.8 mph SW14.2 kmh SW 18.1 mph29.1 kmh 29.99 in1015.6 mb 0.00 in0.0 mm 0.00 in0.0 mm 0.00 in0.0 mm
02:07 PM 90.0°F32.2°C 34.9°F1.6°C 15% 8.5 mph SW13.7 kmh SW 17.0 mph27.4 kmh 29.99 in1015.6 mb 0.00 in0.0 mm 0.00 in0.0 mm 0.00 in0.0 mm
02:12 PM 90.0°F32.2°C 31.4°F-0.3°C 13% 11.9 mph WSW19.2 kmh WSW 14.5 mph23.3 kmh 29.99 in1015.6 mb 0.00 in0.0 mm 0.00 in0.0 mm 0.00 in0.0 mm
02:17 PM 90.0°F32.2°C 31.4°F-0.3°C 13% 12.1 mph SW19.5 kmh SW 15.7 mph25.3 kmh 29.99 in1015.6 mb 0.00 in0.0 mm 0.00 in0.0 mm 0.00 in0.0 mm
02:22 PM 89.8°F32.1°C 31.3°F-0.4°C 13% 18.7 mph SW30.1 kmh SW 23.0 mph37.0 kmh 29.99 in1015.6 mb 0.00 in0.0 mm 0.00 in0.0 mm 0.00 in0.0 mm
02:27 PM 89.5°F31.9°C 31.1°F-0.5°C 13% 11.1 mph SW17.9 kmh SW 23.0 mph37.0 kmh 29.99 in1015.6 mb 0.00 in0.0 mm 0.00 in0.0 mm 0.00 in0.0 mm
02:32 PM 89.6°F32.0°C 34.7°F1.5°C 15% 10.6 mph SW17.1 kmh SW 17.9 mph28.8 kmh 29.98 in1015.2 mb 0.00 in0.0 mm 0.00 in0.0 mm 0.00 in0.0 mm
02:37 PM 89.8°F32.1°C 31.3°F-0.4°C 13% 11.7 mph SW18.8 kmh SW 14.3 mph23.0 kmh 29.98 in1015.2 mb 0.00 in0.0 mm 0.00 in0.0 mm 0.00 in0.0 mm
02:42 PM 90.0°F32.2°C 34.9°F1.6°C 15% 8.4 mph SW13.5 kmh SW 14.3 mph23.0 kmh 29.98 in1015.2 mb 0.00 in0.0 mm 0.00 in0.0 mm 0.00 in0.0 mm
02:47 PM 90.2°F32.3°C 31.6°F-0.2°C 13% 4.0 mph NW6.4 kmh NW 14.8 mph23.8 kmh 29.98 in1015.2 mb 0.00 in0.0 mm 0.00 in0.0 mm 0.00 in0.0 mm
02:52 PM 90.4°F32.4°C 31.8°F-0.1°C 13% 14.9 mph SW24.0 kmh SW 19.2 mph30.9 kmh 29.98 in1015.2 mb 0.00 in0.0 mm 0.00 in0.0 mm 0.00 in0.0 mm
02:56 PM 90.2°F32.3°C 35.1°F1.7°C 15% 16.0 mph S25.7 kmh S 19.2 mph30.9 kmh 29.98 in1015.2 mb 0.00 in0.0 mm 0.00 in0.0 mm 0.00 in0.0 mm
03:02 PM 90.2°F32.3°C 36.8°F2.7°C 16% 10.5 mph SSW16.9 kmh SSW 17.2 mph27.7 kmh 29.97 in1014.9 mb 0.00 in0.0 mm 0.00 in0.0 mm 0.00 in0.0 mm
03:07 PM 90.2°F32.3°C 35.1°F1.7°C 15% 5.7 mph S9.2 kmh S 17.2 mph27.7 kmh 29.97 in1014.9 mb 0.00 in0.0 mm 0.00 in0.0 mm 0.00 in0.0 mm
03:12 PM 90.5°F32.5°C 35.4°F1.9°C 15% 5.2 mph SW8.4 kmh SW 17.2 mph27.7 kmh 29.97 in1014.9 mb 0.00 in0.0 mm 0.00 in0.0 mm 0.00 in0.0 mm
03:17 PM 91.1°F32.8°C 37.5°F3.1°C 16% 10.2 mph SSW16.4 kmh SSW 12.8 mph20.6 kmh 29.97 in1014.9 mb 0.00 in0.0 mm 0.00 in0.0 mm 0.00 in0.0 mm
03:22 PM 91.4°F33.0°C 37.8°F3.2°C 16% 5.3 mph SSE8.5 kmh SSE 12.8 mph20.6 kmh 29.97 in1014.9 mb 0.00 in0.0 mm 0.00 in0.0 mm 0.00 in0.0 mm
03:27 PM 91.8°F33.2°C 36.4°F2.4°C 15% 14.2 mph SW22.9 kmh SW 18.3 mph29.5 kmh 29.97 in1014.9 mb 0.00 in0.0 mm 0.00 in0.0 mm 0.00 in0.0 mm
03:32 PM 91.1°F32.8°C 32.3°F0.2°C 13% 10.9 mph SW17.5 kmh SW 18.3 mph29.5 kmh 29.97 in1014.9 mb 0.00 in0.0 mm 0.00 in0.0 mm 0.00 in0.0 mm
03:37 PM 90.5°F32.5°C 31.9°F-0.1°C 13% 11.4 mph WSW18.3 kmh WSW 15.4 mph24.8 kmh 29.97 in1014.9 mb 0.00 in0.0 mm 0.00 in0.0 mm 0.00 in0.0 mm
03:42 PM 90.5°F32.5°C 33.7°F0.9°C 14% 6.5 mph SW10.5 kmh SW 14.3 mph23.0 kmh 29.96 in1014.6 mb 0.00 in0.0 mm 0.00 in0.0 mm 0.00 in0.0 mm
03:47 PM 91.1°F32.8°C 35.8°F2.1°C 15% 7.6 mph S12.2 kmh S 11.6 mph18.7 kmh 29.96 in1014.6 mb 0.00 in0.0 mm 0.00 in0.0 mm 0.00 in0.0 mm
03:52 PM 91.4°F33.0°C 36.1°F2.3°C 15% 7.1 mph SW11.4 kmh SW 8.5 mph13.7 kmh 29.96 in1014.6 mb 0.00 in0.0 mm 0.00 in0.0 mm 0.00 in0.0 mm
03:57 PM 91.6°F33.1°C 36.3°F2.4°C 15% 12.9 mph SSW20.8 kmh SSW 14.3 mph23.0 kmh 29.96 in1014.6 mb 0.00 in0.0 mm 0.00 in0.0 mm 0.00 in0.0 mm
04:02 PM 91.4°F33.0°C 36.1°F2.3°C 15% 4.7 mph S7.6 kmh S 14.3 mph23.0 kmh 29.96 in1014.6 mb 0.00 in0.0 mm 0.00 in0.0 mm 0.00 in0.0 mm
04:07 PM 91.1°F32.8°C 35.8°F2.1°C 15% 9.1 mph WSW14.6 kmh WSW 11.4 mph18.3 kmh 29.96 in1014.6 mb 0.00 in0.0 mm 0.00 in0.0 mm 0.00 in0.0 mm
04:12 PM 90.9°F32.7°C 32.1°F0.1°C 13% 6.5 mph WSW10.5 kmh WSW 12.5 mph20.1 kmh 29.96 in1014.6 mb 0.00 in0.0 mm 0.00 in0.0 mm 0.00 in0.0 mm
04:17 PM 90.7°F32.6°C 35.6°F2.0°C 15% 5.9 mph S9.5 kmh S 12.5 mph20.1 kmh 29.96 in1014.6 mb 0.00 in0.0 mm 0.00 in0.0 mm 0.00 in0.0 mm
04:22 PM 90.7°F32.6°C 30.2°F-1.0°C 12% 4.3 mph W6.9 kmh W 10.7 mph17.2 kmh 29.96 in1014.6 mb 0.00 in0.0 mm 0.00 in0.0 mm 0.00 in0.0 mm
04:27 PM 91.1°F32.8°C 30.6°F-0.8°C 12% 6.3 mph WNW10.1 kmh WNW 7.6 mph12.2 kmh 29.95 in1014.2 mb 0.00 in0.0 mm 0.00 in0.0 mm 0.00 in0.0 mm
04:32 PM 90.7°F32.6°C 30.2°F-1.0°C 12% 5.8 mph WNW9.3 kmh WNW 9.2 mph14.8 kmh 29.95 in1014.2 mb 0.00 in0.0 mm 0.00 in0.0 mm 0.00 in0.0 mm
04:37 PM 90.4°F32.4°C 30.0°F-1.1°C 12% 8.0 mph SW12.9 kmh SW 9.2 mph14.8 kmh 29.95 in1014.2 mb 0.00 in0.0 mm 0.00 in0.0 mm 0.00 in0.0 mm
04:42 PM 90.4°F32.4°C 31.8°F-0.1°C 13% 12.2 mph SSW19.6 kmh SSW 16.3 mph26.2 kmh 29.95 in1014.2 mb 0.00 in0.0 mm 0.00 in0.0 mm 0.00 in0.0 mm
04:47 PM 90.2°F32.3°C 35.1°F1.7°C 15% 5.4 mph SSW8.7 kmh SSW 16.3 mph26.2 kmh 29.95 in1014.2 mb 0.00 in0.0 mm 0.00 in0.0 mm 0.00 in0.0 mm
04:52 PM 90.7°F32.6°C 35.6°F2.0°C 15% 5.8 mph SW9.3 kmh SW 16.3 mph26.2 kmh 29.95 in1014.2 mb 0.00 in0.0 mm 0.00 in0.0 mm 0.00 in0.0 mm
04:57 PM 90.7°F32.6°C 32.1°F0.1°C 13% 8.4 mph SW13.5 kmh SW 12.3 mph19.8 kmh 29.95 in1014.2 mb 0.00 in0.0 mm 0.00 in0.0 mm 0.00 in0.0 mm
05:03 PM 90.4°F32.4°C 31.8°F-0.1°C 13% 9.4 mph WSW15.1 kmh WSW 12.5 mph20.1 kmh 29.95 in1014.2 mb 0.00 in0.0 mm 0.00 in0.0 mm 0.00 in0.0 mm
05:07 PM 90.0°F32.2°C 31.4°F-0.3°C 13% 6.0 mph SW9.7 kmh SW 12.5 mph20.1 kmh 29.95 in1014.2 mb 0.00 in0.0 mm 0.00 in0.0 mm 0.00 in0.0 mm
05:12 PM 89.6°F32.0°C 31.1°F-0.5°C 13% 12.2 mph SSW19.6 kmh SSW 16.1 mph25.9 kmh 29.95 in1014.2 mb 0.00 in0.0 mm 0.00 in0.0 mm 0.00 in0.0 mm
05:17 PM 89.3°F31.8°C 30.9°F-0.6°C 13% 6.5 mph WSW10.5 kmh WSW 16.1 mph25.9 kmh 29.95 in1014.2 mb 0.00 in0.0 mm 0.00 in0.0 mm 0.00 in0.0 mm
05:22 PM 89.3°F31.8°C 30.9°F-0.6°C 13% 3.7 mph SW6.0 kmh SW 9.2 mph14.8 kmh 29.94 in1013.9 mb 0.00 in0.0 mm 0.00 in0.0 mm 0.00 in0.0 mm
05:27 PM 89.6°F32.0°C 33.0°F0.6°C 14% 7.9 mph SW12.7 kmh SW 10.5 mph16.9 kmh 29.94 in1013.9 mb 0.00 in0.0 mm 0.00 in0.0 mm 0.00 in0.0 mm
05:32 PM 89.3°F31.8°C 30.9°F-0.6°C 13% 7.3 mph SW11.7 kmh SW 10.7 mph17.2 kmh 29.94 in1013.9 mb 0.00 in0.0 mm 0.00 in0.0 mm 0.00 in0.0 mm
05:37 PM 88.9°F31.6°C 30.6°F-0.8°C 13% 8.9 mph SW14.3 kmh SW 10.7 mph17.2 kmh 29.94 in1013.9 mb 0.00 in0.0 mm 0.00 in0.0 mm 0.00 in0.0 mm
05:42 PM 88.9°F31.6°C 30.6°F-0.8°C 13% 6.6 mph WSW10.6 kmh WSW 10.1 mph16.3 kmh 29.94 in1013.9 mb 0.00 in0.0 mm 0.00 in0.0 mm 0.00 in0.0 mm
05:47 PM 88.4°F31.3°C 30.3°F-0.9°C 13% 7.9 mph S12.7 kmh S 12.1 mph19.5 kmh 29.94 in1013.9 mb 0.00 in0.0 mm 0.00 in0.0 mm 0.00 in0.0 mm
05:52 PM 88.2°F31.2°C 33.6°F0.9°C 15% 8.8 mph SW14.2 kmh SW 12.1 mph19.5 kmh 29.94 in1013.9 mb 0.00 in0.0 mm 0.00 in0.0 mm 0.00 in0.0 mm
05:57 PM 87.7°F30.9°C 33.1°F0.6°C 15% 7.5 mph SSW12.1 kmh SSW 10.1 mph16.3 kmh 29.94 in1013.9 mb 0.00 in0.0 mm 0.00 in0.0 mm 0.00 in0.0 mm
06:03 PM 87.7°F30.9°C 33.1°F0.6°C 15% 6.5 mph SW10.5 kmh SW 10.1 mph16.3 kmh 29.94 in1013.9 mb 0.00 in0.0 mm 0.00 in0.0 mm 0.00 in0.0 mm
06:08 PM 87.5°F30.8°C 33.0°F0.6°C 15% 6.4 mph SW10.3 kmh SW 9.2 mph14.8 kmh 29.94 in1013.9 mb 0.00 in0.0 mm 0.00 in0.0 mm 0.00 in0.0 mm
06:13 PM 87.3°F30.7°C 32.9°F0.5°C 15% 4.9 mph SW7.9 kmh SW 9.2 mph14.8 kmh 29.94 in1013.9 mb 0.00 in0.0 mm 0.00 in0.0 mm 0.00 in0.0 mm
06:18 PM 87.1°F30.6°C 32.7°F0.4°C 15% 4.6 mph SW7.4 kmh SW 5.4 mph8.7 kmh 29.94 in1013.9 mb 0.00 in0.0 mm 0.00 in0.0 mm 0.00 in0.0 mm
06:23 PM 87.1°F30.6°C 32.7°F0.4°C 15% 3.7 mph SW6.0 kmh SW 5.4 mph8.7 kmh 29.94 in1013.9 mb 0.00 in0.0 mm 0.00 in0.0 mm 0.00 in0.0 mm
06:28 PM 86.8°F30.4°C 32.4°F0.2°C 15% 4.7 mph SW7.6 kmh SW 5.4 mph8.7 kmh 29.94 in1013.9 mb 0.00 in0.0 mm 0.00 in0.0 mm 0.00 in0.0 mm
06:33 PM 86.4°F30.2°C 32.0°F0.0°C 15% 4.3 mph SW6.9 kmh SW 5.4 mph8.7 kmh 29.94 in1013.9 mb 0.00 in0.0 mm 0.00 in0.0 mm 0.00 in0.0 mm
06:38 PM 85.9°F29.9°C 31.6°F-0.2°C 15% 2.3 mph SW3.7 kmh SW 6.0 mph9.7 kmh 29.94 in1013.9 mb 0.00 in0.0 mm 0.00 in0.0 mm 0.00 in0.0 mm
06:42 PM 85.5°F29.7°C 31.3°F-0.4°C 15% 4.2 mph SW6.8 kmh SW 6.0 mph9.7 kmh 29.94 in1013.9 mb 0.00 in0.0 mm 0.00 in0.0 mm 0.00 in0.0 mm
06:47 PM 85.0°F29.4°C 30.9°F-0.6°C 15% 3.4 mph SW5.5 kmh SW 4.9 mph7.9 kmh 29.94 in1013.9 mb 0.00 in0.0 mm 0.00 in0.0 mm 0.00 in0.0 mm
06:52 PM 84.2°F29.0°C 30.3°F-0.9°C 15% 3.2 mph SW5.1 kmh SW 3.8 mph6.1 kmh 29.94 in1013.9 mb 0.00 in0.0 mm 0.00 in0.0 mm 0.00 in0.0 mm
06:57 PM 83.3°F28.5°C 29.6°F-1.3°C 15% 4.6 mph WSW7.4 kmh WSW 5.4 mph8.7 kmh 29.94 in1013.9 mb 0.00 in0.0 mm 0.00 in0.0 mm 0.00 in0.0 mm
07:03 PM 82.4°F28.0°C 29.0°F-1.7°C 15% 6.1 mph WSW9.8 kmh WSW 7.8 mph12.6 kmh 29.94 in1013.9 mb 0.00 in0.0 mm 0.00 in0.0 mm 0.00 in0.0 mm
07:08 PM 81.7°F27.6°C 28.5°F-1.9°C 15% 5.5 mph W8.9 kmh W 7.8 mph12.6 kmh 29.94 in1013.9 mb 0.00 in0.0 mm 0.00 in0.0 mm 0.00 in0.0 mm
07:13 PM 81.5°F27.5°C 28.3°F-2.1°C 15% 4.7 mph WSW7.6 kmh WSW 7.6 mph12.2 kmh 29.94 in1013.9 mb 0.00 in0.0 mm 0.00 in0.0 mm 0.00 in0.0 mm
07:18 PM 81.0°F27.2°C 27.8°F-2.3°C 15% 4.0 mph WSW6.4 kmh WSW 7.2 mph11.6 kmh 29.94 in1013.9 mb 0.00 in0.0 mm 0.00 in0.0 mm 0.00 in0.0 mm
07:23 PM 80.3°F26.8°C 27.3°F-2.6°C 15% 4.3 mph W6.9 kmh W 5.6 mph9.0 kmh 29.94 in1013.9 mb 0.00 in0.0 mm 0.00 in0.0 mm 0.00 in0.0 mm
07:28 PM 79.6°F26.4°C 26.7°F-2.9°C 15% 2.8 mph W4.5 kmh W 5.1 mph8.2 kmh 29.94 in1013.9 mb 0.00 in0.0 mm 0.00 in0.0 mm 0.00 in0.0 mm
07:33 PM 79.0°F26.1°C 26.2°F-3.2°C 15% 0.2 mph NW0.3 kmh NW 5.1 mph8.2 kmh 29.94 in1013.9 mb 0.00 in0.0 mm 0.00 in0.0 mm 0.00 in0.0 mm
07:38 PM 78.5°F25.8°C 25.7°F-3.5°C 15% Calm Calm 2.7 mph4.3 kmh 29.94 in1013.9 mb 0.00 in0.0 mm 0.00 in0.0 mm 0.00 in0.0 mm
07:43 PM 77.6°F25.3°C 25.0°F-3.9°C 15% Calm Calm 0.2 mph0.3 kmh 29.94 in1013.9 mb 0.00 in0.0 mm 0.00 in0.0 mm 0.00 in0.0 mm
07:48 PM 76.9°F24.9°C 26.2°F-3.2°C 16% 1.1 mph SSE1.8 kmh SSE 1.1 mph1.8 kmh 29.95 in1014.2 mb 0.00 in0.0 mm 0.00 in0.0 mm 0.00 in0.0 mm
07:53 PM 76.1°F24.5°C 25.6°F-3.6°C 16% 1.2 mph S1.9 kmh S 2.9 mph4.7 kmh 29.95 in1014.2 mb 0.00 in0.0 mm 0.00 in0.0 mm 0.00 in0.0 mm
07:58 PM 75.2°F24.0°C 26.6°F-3.0°C 17% 3.5 mph SW5.6 kmh SW 4.0 mph6.4 kmh 29.95 in1014.2 mb 0.00 in0.0 mm 0.00 in0.0 mm 0.00 in0.0 mm
08:03 PM 74.7°F23.7°C 26.1°F-3.3°C 17% 2.2 mph SW3.5 kmh SW 4.0 mph6.4 kmh 29.95 in1014.2 mb 0.00 in0.0 mm 0.00 in0.0 mm 0.00 in0.0 mm
08:08 PM 74.3°F23.5°C 25.8°F-3.4°C 17% 2.5 mph SW4.0 kmh SW 4.0 mph6.4 kmh 29.95 in1014.2 mb 0.00 in0.0 mm 0.00 in0.0 mm 0.00 in0.0 mm
08:13 PM 73.8°F23.2°C 27.1°F-2.7°C 18% 2.4 mph SW3.9 kmh SW 4.7 mph7.6 kmh 29.96 in1014.6 mb 0.00 in0.0 mm 0.00 in0.0 mm 0.00 in0.0 mm
08:18 PM 73.4°F23.0°C 26.8°F-2.9°C 18% 0.5 mph WSW0.8 kmh WSW 4.7 mph7.6 kmh 29.96 in1014.6 mb 0.00 in0.0 mm 0.00 in0.0 mm 0.00 in0.0 mm
08:23 PM 72.9°F22.7°C 24.7°F-4.1°C 17% Calm Calm 1.1 mph1.8 kmh 29.96 in1014.6 mb 0.00 in0.0 mm 0.00 in0.0 mm 0.00 in0.0 mm
08:28 PM 72.5°F22.5°C 26.0°F-3.3°C 18% Calm Calm 0.4 mph0.6 kmh 29.96 in1014.6 mb 0.00 in0.0 mm 0.00 in0.0 mm 0.00 in0.0 mm
08:33 PM 72.2°F22.3°C 25.7°F-3.5°C 18% Calm Calm -- 29.96 in1014.6 mb 0.00 in0.0 mm 0.00 in0.0 mm 0.00 in0.0 mm
08:38 PM 71.8°F22.1°C 25.4°F-3.7°C 18% Calm Calm -- 29.96 in1014.6 mb 0.00 in0.0 mm 0.00 in0.0 mm 0.00 in0.0 mm
08:43 PM 71.6°F22.0°C 25.2°F-3.8°C 18% Calm Calm -- 29.97 in1014.9 mb 0.00 in0.0 mm 0.00 in0.0 mm 0.00 in0.0 mm
08:48 PM 71.1°F21.7°C 24.8°F-4.0°C 18% 0.6 mph SSW1.0 kmh SSW 0.9 mph1.4 kmh 29.97 in1014.9 mb 0.00 in0.0 mm 0.00 in0.0 mm 0.00 in0.0 mm
08:53 PM 70.6°F21.4°C 24.3°F-4.3°C 18% Calm Calm 0.9 mph1.4 kmh 29.96 in1014.6 mb 0.00 in0.0 mm 0.00 in0.0 mm 0.00 in0.0 mm
08:58 PM 70.2°F21.2°C 24.0°F-4.4°C 18% Calm Calm -- 29.97 in1014.9 mb 0.00 in0.0 mm 0.00 in0.0 mm 0.00 in0.0 mm
09:03 PM 70.0°F21.1°C 24.0°F-4.4°C 18% Calm Calm -- 29.97 in1014.9 mb 0.00 in0.0 mm 0.00 in0.0 mm 0.00 in0.0 mm
09:08 PM 69.8°F21.0°C 23.8°F-4.6°C 18% Calm Calm 0.2 mph0.3 kmh 29.97 in1014.9 mb 0.00 in0.0 mm 0.00 in0.0 mm 0.00 in0.0 mm
09:13 PM 69.5°F20.8°C 25.1°F-3.8°C 19% 1.5 mph W2.4 kmh W 1.6 mph2.6 kmh 29.97 in1014.9 mb 0.00 in0.0 mm 0.00 in0.0 mm 0.00 in0.0 mm
09:18 PM 68.8°F20.4°C 24.6°F-4.1°C 19% Calm Calm 1.6 mph2.6 kmh 29.97 in1014.9 mb 0.00 in0.0 mm 0.00 in0.0 mm 0.00 in0.0 mm
09:23 PM 68.4°F20.2°C 24.2°F-4.3°C 19% 0.2 mph WSW0.3 kmh WSW 0.2 mph0.3 kmh 29.98 in1015.2 mb 0.00 in0.0 mm 0.00 in0.0 mm 0.00 in0.0 mm
09:28 PM 67.9°F19.9°C 23.8°F-4.6°C 19% 2.9 mph ENE4.7 kmh ENE 5.1 mph8.2 kmh 29.98 in1015.2 mb 0.00 in0.0 mm 0.00 in0.0 mm 0.00 in0.0 mm
09:33 PM 67.0°F19.4°C 25.6°F-3.6°C 21% 3.6 mph ENE5.8 kmh ENE 5.6 mph9.0 kmh 29.98 in1015.2 mb 0.00 in0.0 mm 0.00 in0.0 mm 0.00 in0.0 mm
09:38 PM 66.6°F19.2°C 25.3°F-3.7°C 21% 4.9 mph ENE7.9 kmh ENE 5.6 mph9.0 kmh 29.98 in1015.2 mb 0.00 in0.0 mm 0.00 in0.0 mm 0.00 in0.0 mm
09:43 PM 67.0°F19.4°C 25.6°F-3.6°C 21% 3.5 mph ENE5.6 kmh ENE 5.6 mph9.0 kmh 29.98 in1015.2 mb 0.00 in0.0 mm 0.00 in0.0 mm 0.00 in0.0 mm
09:48 PM 67.1°F19.5°C 25.7°F-3.5°C 21% Calm Calm 5.6 mph9.0 kmh 29.98 in1015.2 mb 0.00 in0.0 mm 0.00 in0.0 mm 0.00 in0.0 mm
09:53 PM 66.6°F19.2°C 24.3°F-4.3°C 20% 2.9 mph 4.7 kmh 3.6 mph5.8 kmh 29.98 in1015.2 mb 0.00 in0.0 mm 0.00 in0.0 mm 0.00 in0.0 mm
09:58 PM 65.9°F18.8°C 24.7°F-4.1°C 21% 4.1 mph N6.6 kmh N 4.5 mph7.2 kmh 29.98 in1015.2 mb 0.00 in0.0 mm 0.00 in0.0 mm 0.00 in0.0 mm
10:04 PM 65.5°F18.6°C 24.4°F-4.2°C 21% 3.2 mph NE5.1 kmh NE 4.5 mph7.2 kmh 29.98 in1015.2 mb 0.00 in0.0 mm 0.00 in0.0 mm 0.00 in0.0 mm
10:09 PM 65.3°F18.5°C 24.2°F-4.3°C 21% 1.5 mph NE2.4 kmh NE 3.6 mph5.8 kmh 29.98 in1015.2 mb 0.00 in0.0 mm 0.00 in0.0 mm 0.00 in0.0 mm
10:14 PM 64.6°F18.1°C 23.7°F-4.6°C 21% 3.7 mph 6.0 kmh 4.0 mph6.4 kmh 29.98 in1015.2 mb 0.00 in0.0 mm 0.00 in0.0 mm 0.00 in0.0 mm
10:19 PM 63.4°F17.4°C 22.6°F-5.2°C 21% Calm Calm 4.0 mph6.4 kmh 29.98 in1015.2 mb 0.00 in0.0 mm 0.00 in0.0 mm 0.00 in0.0 mm
10:23 PM 63.0°F17.2°C 23.3°F-4.8°C 22% Calm Calm 3.4 mph5.5 kmh 29.98 in1015.2 mb 0.00 in0.0 mm 0.00 in0.0 mm 0.00 in0.0 mm
10:28 PM 62.5°F16.9°C 22.9°F-5.1°C 22% Calm Calm -- 29.98 in1015.2 mb 0.00 in0.0 mm 0.00 in0.0 mm 0.00 in0.0 mm
10:33 PM 61.9°F16.6°C 21.4°F-5.9°C 21% 0.9 mph SSE1.4 kmh SSE 0.9 mph1.4 kmh 29.99 in1015.6 mb 0.00 in0.0 mm 0.00 in0.0 mm 0.00 in0.0 mm
10:38 PM 61.2°F16.2°C 21.8°F-5.7°C 22% Calm Calm 0.9 mph1.4 kmh 29.98 in1015.2 mb 0.00 in0.0 mm 0.00 in0.0 mm 0.00 in0.0 mm
10:43 PM 60.8°F16.0°C 21.5°F-5.8°C 22% Calm Calm -- 29.99 in1015.6 mb 0.00 in0.0 mm 0.00 in0.0 mm 0.00 in0.0 mm
10:48 PM 60.3°F15.7°C 21.1°F-6.1°C 22% Calm Calm 1.8 mph2.9 kmh 29.99 in1015.6 mb 0.00 in0.0 mm 0.00 in0.0 mm 0.00 in0.0 mm
10:53 PM 59.8°F15.4°C 20.6°F-6.3°C 22% Calm Calm 1.8 mph2.9 kmh 29.99 in1015.6 mb 0.00 in0.0 mm 0.00 in0.0 mm 0.00 in0.0 mm
10:58 PM 59.4°F15.2°C 21.3°F-5.9°C 23% Calm Calm -- 29.99 in1015.6 mb 0.00 in0.0 mm 0.00 in0.0 mm 0.00 in0.0 mm
11:04 PM 59.0°F15.0°C 21.9°F-5.6°C 24% 0.2 mph NE0.3 kmh NE 2.5 mph4.0 kmh 29.99 in1015.6 mb 0.00 in0.0 mm 0.00 in0.0 mm 0.00 in0.0 mm
11:09 PM 58.3°F14.6°C 21.2°F-6.0°C 24% 2.8 mph E4.5 kmh E 2.9 mph4.7 kmh 29.99 in1015.6 mb 0.00 in0.0 mm 0.00 in0.0 mm 0.00 in0.0 mm
11:14 PM 57.2°F14.0°C 20.3°F-6.5°C 24% 2.5 mph NW4.0 kmh NW 4.7 mph7.6 kmh 30.00 in1015.9 mb 0.00 in0.0 mm 0.00 in0.0 mm 0.00 in0.0 mm
11:19 PM 56.5°F13.6°C 19.8°F-6.8°C 24% 1.1 mph NNE1.8 kmh NNE 4.7 mph7.6 kmh 30.00 in1015.9 mb 0.00 in0.0 mm 0.00 in0.0 mm 0.00 in0.0 mm
11:24 PM 56.3°F13.5°C 19.6°F-6.9°C 24% Calm Calm 1.8 mph2.9 kmh 30.00 in1015.9 mb 0.00 in0.0 mm 0.00 in0.0 mm 0.00 in0.0 mm
11:29 PM 56.0°F13.3°C 20.3°F-6.5°C 25% Calm Calm 1.8 mph2.9 kmh 30.00 in1015.9 mb 0.00 in0.0 mm 0.00 in0.0 mm 0.00 in0.0 mm
11:34 PM 55.8°F13.2°C 19.2°F-7.1°C 24% Calm Calm -- 30.00 in1015.9 mb 0.00 in0.0 mm 0.00 in0.0 mm 0.00 in0.0 mm
11:39 PM 55.8°F13.2°C 19.2°F-7.1°C 24% 1.3 mph 2.1 kmh 1.3 mph2.1 kmh 30.00 in1015.9 mb 0.00 in0.0 mm 0.00 in0.0 mm 0.00 in0.0 mm
11:43 PM 56.0°F13.3°C 20.3°F-6.5°C 25% 2.3 mph NNE3.7 kmh NNE 2.5 mph4.0 kmh 30.01 in1016.3 mb 0.00 in0.0 mm 0.00 in0.0 mm 0.00 in0.0 mm
11:48 PM 56.2°F13.4°C 20.4°F-6.4°C 25% 3.5 mph NNE5.6 kmh NNE 4.5 mph7.2 kmh 30.01 in1016.3 mb 0.00 in0.0 mm 0.00 in0.0 mm 0.00 in0.0 mm
11:53 PM 56.5°F13.6°C 20.7°F-6.3°C 25% 0.2 mph 0.3 kmh 4.5 mph7.2 kmh 30.01 in1016.3 mb 0.00 in0.0 mm 0.00 in0.0 mm 0.00 in0.0 mm
11:58 PM 56.7°F13.7°C 20.9°F-6.2°C 25% 1.6 mph 2.6 kmh 3.6 mph5.8 kmh 30.01 in1016.3 mb 0.00 in0.0 mm 0.00 in0.0 mm 0.00 in0.0 mm